sensor_id;sensor_type;location;lat;lon;timestamp;P1;durP1;ratioP1;P2;durP2;ratioP2
19087;SDS011;9676;50.916;13.352;2022-10-31T00:01:39;10.60;;;9.60;;
19087;SDS011;9676;50.916;13.352;2022-10-31T00:04:09;11.23;;;10.10;;
19087;SDS011;9676;50.916;13.352;2022-10-31T00:06:38;11.17;;;10.07;;
19087;SDS011;9676;50.916;13.352;2022-10-31T00:09:09;11.07;;;9.70;;
19087;SDS011;9676;50.916;13.352;2022-10-31T00:11:39;10.93;;;9.90;;
19087;SDS011;9676;50.916;13.352;2022-10-31T00:14:08;11.37;;;10.27;;
19087;SDS011;9676;50.916;13.352;2022-10-31T00:16:37;11.03;;;9.90;;
19087;SDS011;9676;50.916;13.352;2022-10-31T00:19:08;12.30;;;10.17;;
19087;SDS011;9676;50.916;13.352;2022-10-31T00:21:37;12.10;;;9.97;;
19087;SDS011;9676;50.916;13.352;2022-10-31T00:24:07;12.57;;;10.40;;
19087;SDS011;9676;50.916;13.352;2022-10-31T00:26:36;10.60;;;9.60;;
19087;SDS011;9676;50.916;13.352;2022-10-31T00:29:05;10.23;;;9.30;;
19087;SDS011;9676;50.916;13.352;2022-10-31T00:31:34;11.37;;;10.20;;
19087;SDS011;9676;50.916;13.352;2022-10-31T00:34:05;10.60;;;9.60;;
19087;SDS011;9676;50.916;13.352;2022-10-31T00:36:35;11.67;;;10.47;;
19087;SDS011;9676;50.916;13.352;2022-10-31T00:39:04;10.60;;;9.60;;
19087;SDS011;9676;50.916;13.352;2022-10-31T00:41:33;14.47;;;9.93;;
19087;SDS011;9676;50.916;13.352;2022-10-31T00:44:04;10.93;;;9.83;;
19087;SDS011;9676;50.916;13.352;2022-10-31T00:46:33;10.97;;;9.97;;
19087;SDS011;9676;50.916;13.352;2022-10-31T00:49:02;10.90;;;9.80;;
19087;SDS011;9676;50.916;13.352;2022-10-31T00:51:32;11.17;;;9.97;;
19087;SDS011;9676;50.916;13.352;2022-10-31T00:54:02;10.67;;;9.57;;
19087;SDS011;9676;50.916;13.352;2022-10-31T00:56:31;10.70;;;9.60;;
19087;SDS011;9676;50.916;13.352;2022-10-31T00:59:00;10.77;;;9.67;;
19087;SDS011;9676;50.916;13.352;2022-10-31T01:01:29;11.50;;;9.73;;
19087;SDS011;9676;50.916;13.352;2022-10-31T01:03:58;10.13;;;9.13;;
19087;SDS011;9676;50.916;13.352;2022-10-31T01:06:29;12.53;;;9.67;;
19087;SDS011;9676;50.916;13.352;2022-10-31T01:08:58;10.00;;;9.10;;
19087;SDS011;9676;50.916;13.352;2022-10-31T01:11:27;10.70;;;9.60;;
19087;SDS011;9676;50.916;13.352;2022-10-31T01:13:56;10.77;;;9.67;;
19087;SDS011;9676;50.916;13.352;2022-10-31T01:16:26;10.70;;;9.70;;
19087;SDS011;9676;50.916;13.352;2022-10-31T01:18:57;10.50;;;9.40;;
19087;SDS011;9676;50.916;13.352;2022-10-31T01:21:27;10.17;;;9.23;;
19087;SDS011;9676;50.916;13.352;2022-10-31T01:23:58;10.30;;;9.23;;
19087;SDS011;9676;50.916;13.352;2022-10-31T01:26:29;10.43;;;9.40;;
19087;SDS011;9676;50.916;13.352;2022-10-31T01:29:01;10.50;;;9.50;;
19087;SDS011;9676;50.916;13.352;2022-10-31T01:31:35;10.50;;;9.50;;
19087;SDS011;9676;50.916;13.352;2022-10-31T01:34:06;10.53;;;9.53;;
19087;SDS011;9676;50.916;13.352;2022-10-31T01:36:42;10.37;;;9.30;;
19087;SDS011;9676;50.916;13.352;2022-10-31T01:39:15;10.13;;;9.10;;
19087;SDS011;9676;50.916;13.352;2022-10-31T01:41:45;10.63;;;9.57;;
19087;SDS011;9676;50.916;13.352;2022-10-31T01:47:23;9.93;;;9.10;;
19087;SDS011;9676;50.916;13.352;2022-10-31T01:50:03;10.77;;;9.70;;
19087;SDS011;9676;50.916;13.352;2022-10-31T01:52:38;10.27;;;9.27;;
19087;SDS011;9676;50.916;13.352;2022-10-31T01:55:12;10.77;;;9.67;;
19087;SDS011;9676;50.916;13.352;2022-10-31T01:57:46;13.50;;;9.77;;
19087;SDS011;9676;50.916;13.352;2022-10-31T02:00:18;10.30;;;9.40;;
19087;SDS011;9676;50.916;13.352;2022-10-31T02:02:49;10.60;;;9.60;;
19087;SDS011;9676;50.916;13.352;2022-10-31T02:05:20;10.50;;;9.50;;
19087;SDS011;9676;50.916;13.352;2022-10-31T02:07:55;10.50;;;9.50;;
19087;SDS011;9676;50.916;13.352;2022-10-31T02:10:29;10.10;;;9.07;;
19087;SDS011;9676;50.916;13.352;2022-10-31T02:13:01;10.17;;;9.17;;
19087;SDS011;9676;50.916;13.352;2022-10-31T02:15:42;10.40;;;9.40;;
19087;SDS011;9676;50.916;13.352;2022-10-31T02:18:13;10.33;;;9.33;;
19087;SDS011;9676;50.916;13.352;2022-10-31T02:20:46;10.93;;;9.83;;
19087;SDS011;9676;50.916;13.352;2022-10-31T02:26:43;10.47;;;9.40;;
19087;SDS011;9676;50.916;13.352;2022-10-31T02:32:56;10.47;;;9.47;;
19087;SDS011;9676;50.916;13.352;2022-10-31T02:35:39;10.23;;;9.23;;
19087;SDS011;9676;50.916;13.352;2022-10-31T02:38:24;10.30;;;9.20;;
19087;SDS011;9676;50.916;13.352;2022-10-31T02:41:04;10.80;;;9.70;;
19087;SDS011;9676;50.916;13.352;2022-10-31T02:43:49;10.40;;;9.50;;
19087;SDS011;9676;50.916;13.352;2022-10-31T02:46:32;10.77;;;9.77;;
19087;SDS011;9676;50.916;13.352;2022-10-31T02:49:11;10.60;;;9.60;;
19087;SDS011;9676;50.916;13.352;2022-10-31T02:51:49;10.50;;;9.50;;
19087;SDS011;9676;50.916;13.352;2022-10-31T02:54:19;16.33;;;10.10;;
19087;SDS011;9676;50.916;13.352;2022-10-31T02:56:54;10.77;;;9.60;;
19087;SDS011;9676;50.916;13.352;2022-10-31T02:59:28;11.00;;;9.90;;
19087;SDS011;9676;50.916;13.352;2022-10-31T03:02:06;10.73;;;9.73;;
19087;SDS011;9676;50.916;13.352;2022-10-31T03:05:01;10.70;;;9.70;;
19087;SDS011;9676;50.916;13.352;2022-10-31T03:08:01;11.80;;;10.30;;
19087;SDS011;9676;50.916;13.352;2022-10-31T03:10:42;13.60;;;10.57;;
19087;SDS011;9676;50.916;13.352;2022-10-31T03:13:19;11.03;;;9.87;;
19087;SDS011;9676;50.916;13.352;2022-10-31T03:15:55;10.90;;;9.80;;
19087;SDS011;9676;50.916;13.352;2022-10-31T03:18:31;11.00;;;9.90;;
19087;SDS011;9676;50.916;13.352;2022-10-31T03:21:07;10.60;;;9.60;;
19087;SDS011;9676;50.916;13.352;2022-10-31T03:23:42;12.80;;;9.60;;
19087;SDS011;9676;50.916;13.352;2022-10-31T03:26:19;10.97;;;9.93;;
19087;SDS011;9676;50.916;13.352;2022-10-31T03:28:51;10.73;;;9.67;;
19087;SDS011;9676;50.916;13.352;2022-10-31T03:31:26;10.30;;;9.40;;
19087;SDS011;9676;50.916;13.352;2022-10-31T03:34:01;10.33;;;9.43;;
19087;SDS011;9676;50.916;13.352;2022-10-31T03:36:35;10.83;;;9.83;;
19087;SDS011;9676;50.916;13.352;2022-10-31T03:39:07;10.90;;;9.80;;
19087;SDS011;9676;50.916;13.352;2022-10-31T03:41:43;10.80;;;9.70;;
19087;SDS011;9676;50.916;13.352;2022-10-31T03:44:18;10.27;;;9.30;;
19087;SDS011;9676;50.916;13.352;2022-10-31T03:46:57;10.97;;;9.87;;
19087;SDS011;9676;50.916;13.352;2022-10-31T03:49:27;11.67;;;10.13;;
19087;SDS011;9676;50.916;13.352;2022-10-31T03:52:00;11.27;;;10.00;;
19087;SDS011;9676;50.916;13.352;2022-10-31T03:54:37;11.43;;;10.23;;
19087;SDS011;9676;50.916;13.352;2022-10-31T03:57:14;11.83;;;10.07;;
19087;SDS011;9676;50.916;13.352;2022-10-31T03:59:51;10.90;;;9.80;;
19087;SDS011;9676;50.916;13.352;2022-10-31T04:02:26;11.00;;;9.90;;
19087;SDS011;9676;50.916;13.352;2022-10-31T04:05:00;11.43;;;10.00;;
19087;SDS011;9676;50.916;13.352;2022-10-31T04:07:33;10.40;;;9.40;;
19087;SDS011;9676;50.916;13.352;2022-10-31T04:10:09;11.20;;;10.00;;
19087;SDS011;9676;50.916;13.352;2022-10-31T04:12:42;11.17;;;10.07;;
19087;SDS011;9676;50.916;13.352;2022-10-31T04:15:21;11.33;;;9.87;;
19087;SDS011;9676;50.916;13.352;2022-10-31T04:17:53;10.97;;;9.90;;
19087;SDS011;9676;50.916;13.352;2022-10-31T04:20:30;10.63;;;9.63;;
19087;SDS011;9676;50.916;13.352;2022-10-31T04:23:03;11.10;;;10.00;;
19087;SDS011;9676;50.916;13.352;2022-10-31T04:25:39;11.77;;;10.50;;
19087;SDS011;9676;50.916;13.352;2022-10-31T04:28:09;11.40;;;10.20;;
19087;SDS011;9676;50.916;13.352;2022-10-31T04:30:39;11.20;;;9.97;;
19087;SDS011;9676;50.916;13.352;2022-10-31T04:33:08;11.70;;;10.50;;
19087;SDS011;9676;50.916;13.352;2022-10-31T04:35:38;10.87;;;9.77;;
19087;SDS011;9676;50.916;13.352;2022-10-31T04:38:11;11.43;;;10.23;;
19087;SDS011;9676;50.916;13.352;2022-10-31T04:40:42;11.20;;;10.10;;
19087;SDS011;9676;50.916;13.352;2022-10-31T04:43:45;14.13;;;10.27;;
19087;SDS011;9676;50.916;13.352;2022-10-31T04:46:14;12.10;;;10.10;;
19087;SDS011;9676;50.916;13.352;2022-10-31T04:48:43;10.93;;;9.90;;
19087;SDS011;9676;50.916;13.352;2022-10-31T04:51:12;11.30;;;10.10;;
19087;SDS011;9676;50.916;13.352;2022-10-31T04:53:43;11.07;;;9.77;;
19087;SDS011;9676;50.916;13.352;2022-10-31T04:56:27;11.10;;;10.00;;
19087;SDS011;9676;50.916;13.352;2022-10-31T04:59:02;11.60;;;10.40;;
19087;SDS011;9676;50.916;13.352;2022-10-31T05:01:44;11.30;;;10.10;;
19087;SDS011;9676;50.916;13.352;2022-10-31T05:04:13;11.27;;;10.13;;
19087;SDS011;9676;50.916;13.352;2022-10-31T05:06:42;11.40;;;10.20;;
19087;SDS011;9676;50.916;13.352;2022-10-31T05:09:13;10.87;;;9.87;;
19087;SDS011;9676;50.916;13.352;2022-10-31T05:11:43;11.07;;;9.97;;
19087;SDS011;9676;50.916;13.352;2022-10-31T05:14:41;12.03;;;9.93;;
19087;SDS011;9676;50.916;13.352;2022-10-31T05:17:33;10.90;;;9.80;;
19087;SDS011;9676;50.916;13.352;2022-10-31T05:20:23;10.60;;;9.53;;
19087;SDS011;9676;50.916;13.352;2022-10-31T05:23:11;11.10;;;9.80;;
19087;SDS011;9676;50.916;13.352;2022-10-31T05:25:42;12.03;;;10.30;;
19087;SDS011;9676;50.916;13.352;2022-10-31T05:28:12;11.40;;;10.30;;
19087;SDS011;9676;50.916;13.352;2022-10-31T05:30:41;11.53;;;10.33;;
19087;SDS011;9676;50.916;13.352;2022-10-31T05:33:14;13.73;;;10.50;;
19087;SDS011;9676;50.916;13.352;2022-10-31T05:36:09;13.67;;;10.80;;
19087;SDS011;9676;50.916;13.352;2022-10-31T05:39:04;13.43;;;10.80;;
19087;SDS011;9676;50.916;13.352;2022-10-31T05:41:39;17.23;;;11.47;;
19087;SDS011;9676;50.916;13.352;2022-10-31T05:44:14;14.20;;;11.50;;
19087;SDS011;9676;50.916;13.352;2022-10-31T05:46:53;13.03;;;11.30;;
19087;SDS011;9676;50.916;13.352;2022-10-31T05:49:37;15.43;;;11.80;;
19087;SDS011;9676;50.916;13.352;2022-10-31T05:52:30;14.60;;;11.70;;
19087;SDS011;9676;50.916;13.352;2022-10-31T05:55:10;17.37;;;12.40;;
19087;SDS011;9676;50.916;13.352;2022-10-31T05:57:48;16.20;;;11.93;;
19087;SDS011;9676;50.916;13.352;2022-10-31T06:00:18;17.10;;;11.93;;
19087;SDS011;9676;50.916;13.352;2022-10-31T06:02:48;13.67;;;11.60;;
19087;SDS011;9676;50.916;13.352;2022-10-31T06:05:26;15.00;;;11.70;;
19087;SDS011;9676;50.916;13.352;2022-10-31T06:07:55;13.87;;;11.57;;
19087;SDS011;9676;50.916;13.352;2022-10-31T06:10:26;13.90;;;11.50;;
19087;SDS011;9676;50.916;13.352;2022-10-31T06:12:57;12.37;;;11.10;;
19087;SDS011;9676;50.916;13.352;2022-10-31T06:15:56;11.87;;;10.67;;
19087;SDS011;9676;50.916;13.352;2022-10-31T06:18:32;12.23;;;10.60;;
19087;SDS011;9676;50.916;13.352;2022-10-31T06:21:01;12.20;;;10.83;;
19087;SDS011;9676;50.916;13.352;2022-10-31T06:23:32;12.43;;;10.90;;
19087;SDS011;9676;50.916;13.352;2022-10-31T06:26:24;12.03;;;10.50;;
19087;SDS011;9676;50.916;13.352;2022-10-31T06:28:55;11.63;;;10.43;;
19087;SDS011;9676;50.916;13.352;2022-10-31T06:31:50;11.20;;;10.10;;
19087;SDS011;9676;50.916;13.352;2022-10-31T06:34:19;11.73;;;10.23;;
19087;SDS011;9676;50.916;13.352;2022-10-31T06:36:49;11.27;;;10.10;;
19087;SDS011;9676;50.916;13.352;2022-10-31T06:39:21;11.97;;;10.10;;
19087;SDS011;9676;50.916;13.352;2022-10-31T06:41:50;11.23;;;10.03;;
19087;SDS011;9676;50.916;13.352;2022-10-31T06:44:24;11.63;;;10.43;;
19087;SDS011;9676;50.916;13.352;2022-10-31T06:46:53;11.57;;;10.13;;
19087;SDS011;9676;50.916;13.352;2022-10-31T06:49:32;12.50;;;10.47;;
19087;SDS011;9676;50.916;13.352;2022-10-31T06:52:04;13.30;;;10.30;;
19087;SDS011;9676;50.916;13.352;2022-10-31T06:54:34;11.63;;;10.37;;
19087;SDS011;9676;50.916;13.352;2022-10-31T06:57:04;11.43;;;10.23;;
19087;SDS011;9676;50.916;13.352;2022-10-31T06:59:35;12.67;;;10.30;;
19087;SDS011;9676;50.916;13.352;2022-10-31T07:02:33;11.37;;;10.23;;
19087;SDS011;9676;50.916;13.352;2022-10-31T07:05:04;10.80;;;9.80;;
19087;SDS011;9676;50.916;13.352;2022-10-31T07:07:34;11.37;;;10.17;;
19087;SDS011;9676;50.916;13.352;2022-10-31T07:10:03;11.63;;;10.43;;
19087;SDS011;9676;50.916;13.352;2022-10-31T07:13:06;11.00;;;10.00;;
19087;SDS011;9676;50.916;13.352;2022-10-31T07:15:41;11.43;;;10.20;;
19087;SDS011;9676;50.916;13.352;2022-10-31T07:18:12;10.60;;;9.50;;
19087;SDS011;9676;50.916;13.352;2022-10-31T07:20:42;11.87;;;9.73;;
19087;SDS011;9676;50.916;13.352;2022-10-31T07:23:11;10.80;;;9.70;;
19087;SDS011;9676;50.916;13.352;2022-10-31T07:25:45;12.70;;;10.43;;
19087;SDS011;9676;50.916;13.352;2022-10-31T07:28:20;11.13;;;10.00;;
19087;SDS011;9676;50.916;13.352;2022-10-31T07:30:52;10.90;;;9.90;;
19087;SDS011;9676;50.916;13.352;2022-10-31T07:33:23;11.63;;;10.43;;
19087;SDS011;9676;50.916;13.352;2022-10-31T07:36:12;12.67;;;9.97;;
19087;SDS011;9676;50.916;13.352;2022-10-31T07:38:44;12.00;;;10.70;;
19087;SDS011;9676;50.916;13.352;2022-10-31T07:41:13;10.83;;;9.77;;
19087;SDS011;9676;50.916;13.352;2022-10-31T07:43:45;15.77;;;10.13;;
19087;SDS011;9676;50.916;13.352;2022-10-31T07:46:18;11.60;;;10.40;;
19087;SDS011;9676;50.916;13.352;2022-10-31T07:49:06;11.60;;;10.10;;
19087;SDS011;9676;50.916;13.352;2022-10-31T07:51:54;11.27;;;10.13;;
19087;SDS011;9676;50.916;13.352;2022-10-31T07:54:42;11.60;;;9.40;;
19087;SDS011;9676;50.916;13.352;2022-10-31T07:57:11;10.60;;;9.50;;
19087;SDS011;9676;50.916;13.352;2022-10-31T07:59:43;10.67;;;9.60;;
19087;SDS011;9676;50.916;13.352;2022-10-31T08:02:13;10.90;;;9.50;;
19087;SDS011;9676;50.916;13.352;2022-10-31T08:04:48;10.40;;;9.37;;
19087;SDS011;9676;50.916;13.352;2022-10-31T08:07:40;11.73;;;9.27;;
19087;SDS011;9676;50.916;13.352;2022-10-31T08:10:17;10.43;;;9.33;;
19087;SDS011;9676;50.916;13.352;2022-10-31T08:12:46;10.47;;;9.47;;
19087;SDS011;9676;50.916;13.352;2022-10-31T08:15:15;10.70;;;9.60;;
19087;SDS011;9676;50.916;13.352;2022-10-31T08:17:46;10.10;;;9.10;;
19087;SDS011;9676;50.916;13.352;2022-10-31T08:20:15;11.20;;;9.50;;
19087;SDS011;9676;50.916;13.352;2022-10-31T08:22:55;11.63;;;9.20;;
19087;SDS011;9676;50.916;13.352;2022-10-31T08:25:27;10.70;;;9.13;;
19087;SDS011;9676;50.916;13.352;2022-10-31T08:28:05;10.20;;;9.13;;
19087;SDS011;9676;50.916;13.352;2022-10-31T08:30:36;10.50;;;8.60;;
19087;SDS011;9676;50.916;13.352;2022-10-31T08:33:33;10.40;;;9.10;;
19087;SDS011;9676;50.916;13.352;2022-10-31T08:36:21;10.67;;;8.90;;
19087;SDS011;9676;50.916;13.352;2022-10-31T08:38:53;12.10;;;9.90;;
19087;SDS011;9676;50.916;13.352;2022-10-31T08:41:29;11.30;;;9.90;;
19087;SDS011;9676;50.916;13.352;2022-10-31T08:44:00;13.50;;;9.67;;
19087;SDS011;9676;50.916;13.352;2022-10-31T08:46:29;10.57;;;9.00;;
19087;SDS011;9676;50.916;13.352;2022-10-31T08:49:00;10.37;;;9.37;;
19087;SDS011;9676;50.916;13.352;2022-10-31T08:51:29;10.40;;;9.43;;
19087;SDS011;9676;50.916;13.352;2022-10-31T08:53:59;10.53;;;8.67;;
19087;SDS011;9676;50.916;13.352;2022-10-31T08:56:47;9.97;;;9.00;;
19087;SDS011;9676;50.916;13.352;2022-10-31T08:59:29;11.00;;;9.30;;
19087;SDS011;9676;50.916;13.352;2022-10-31T09:02:18;10.00;;;9.00;;
19087;SDS011;9676;50.916;13.352;2022-10-31T09:04:51;10.50;;;8.80;;
19087;SDS011;9676;50.916;13.352;2022-10-31T09:07:20;9.37;;;8.47;;
19087;SDS011;9676;50.916;13.352;2022-10-31T09:09:49;11.37;;;8.60;;
19087;SDS011;9676;50.916;13.352;2022-10-31T09:12:19;11.53;;;8.70;;
19087;SDS011;9676;50.916;13.352;2022-10-31T09:15:14;10.63;;;9.10;;
19087;SDS011;9676;50.916;13.352;2022-10-31T09:17:48;9.50;;;8.60;;
19087;SDS011;9676;50.916;13.352;2022-10-31T09:20:39;9.20;;;8.40;;
19087;SDS011;9676;50.916;13.352;2022-10-31T09:23:12;9.37;;;8.50;;
19087;SDS011;9676;50.916;13.352;2022-10-31T09:25:43;10.40;;;8.50;;
19087;SDS011;9676;50.916;13.352;2022-10-31T09:28:32;9.73;;;8.73;;
19087;SDS011;9676;50.916;13.352;2022-10-31T09:31:07;9.77;;;8.77;;
19087;SDS011;9676;50.916;13.352;2022-10-31T09:34:02;9.40;;;8.50;;
19087;SDS011;9676;50.916;13.352;2022-10-31T09:36:39;11.80;;;8.70;;
19087;SDS011;9676;50.916;13.352;2022-10-31T09:39:18;10.60;;;8.73;;
19087;SDS011;9676;50.916;13.352;2022-10-31T09:42:02;9.80;;;8.80;;
19087;SDS011;9676;50.916;13.352;2022-10-31T09:44:58;9.53;;;8.60;;
19087;SDS011;9676;50.916;13.352;2022-10-31T09:47:40;9.75;;;8.80;;
19087;SDS011;9676;50.916;13.352;2022-10-31T09:50:31;9.57;;;8.67;;
19087;SDS011;9676;50.916;13.352;2022-10-31T09:53:29;9.50;;;8.60;;
19087;SDS011;9676;50.916;13.352;2022-10-31T09:56:05;9.30;;;8.40;;
19087;SDS011;9676;50.916;13.352;2022-10-31T09:58:40;10.63;;;8.80;;
19087;SDS011;9676;50.916;13.352;2022-10-31T10:01:27;9.40;;;8.60;;
19087;SDS011;9676;50.916;13.352;2022-10-31T10:04:05;9.73;;;8.73;;
19087;SDS011;9676;50.916;13.352;2022-10-31T10:07:05;11.33;;;10.13;;
19087;SDS011;9676;50.916;13.352;2022-10-31T10:09:46;15.63;;;9.23;;
19087;SDS011;9676;50.916;13.352;2022-10-31T10:12:38;10.93;;;9.10;;
19087;SDS011;9676;50.916;13.352;2022-10-31T10:15:57;11.10;;;9.20;;
19087;SDS011;9676;50.916;13.352;2022-10-31T10:18:43;9.70;;;8.77;;
19087;SDS011;9676;50.916;13.352;2022-10-31T10:21:31;9.93;;;8.90;;
19087;SDS011;9676;50.916;13.352;2022-10-31T10:24:16;9.80;;;8.80;;
19087;SDS011;9676;50.916;13.352;2022-10-31T10:26:59;9.57;;;8.63;;
19087;SDS011;9676;50.916;13.352;2022-10-31T10:29:40;25.77;;;16.77;;
19087;SDS011;9676;50.916;13.352;2022-10-31T10:32:19;14.33;;;12.83;;
19087;SDS011;9676;50.916;13.352;2022-10-31T10:34:54;12.67;;;11.07;;
19087;SDS011;9676;50.916;13.352;2022-10-31T10:37:28;11.00;;;9.90;;
19087;SDS011;9676;50.916;13.352;2022-10-31T10:40:05;14.20;;;10.10;;
19087;SDS011;9676;50.916;13.352;2022-10-31T10:42:43;10.10;;;9.10;;
19087;SDS011;9676;50.916;13.352;2022-10-31T10:45:53;10.07;;;9.03;;
19087;SDS011;9676;50.916;13.352;2022-10-31T10:48:51;10.23;;;9.00;;
19087;SDS011;9676;50.916;13.352;2022-10-31T10:51:28;9.53;;;8.63;;
19087;SDS011;9676;50.916;13.352;2022-10-31T10:57:34;10.00;;;8.83;;
19087;SDS011;9676;50.916;13.352;2022-10-31T11:00:22;9.57;;;8.40;;
19087;SDS011;9676;50.916;13.352;2022-10-31T11:02:53;11.23;;;9.07;;
19087;SDS011;9676;50.916;13.352;2022-10-31T11:05:28;12.00;;;8.73;;
19087;SDS011;9676;50.916;13.352;2022-10-31T11:08:05;10.70;;;8.50;;
19087;SDS011;9676;50.916;13.352;2022-10-31T11:10:35;14.60;;;8.90;;
19087;SDS011;9676;50.916;13.352;2022-10-31T11:13:20;9.57;;;8.60;;
19087;SDS011;9676;50.916;13.352;2022-10-31T11:15:53;10.20;;;9.10;;
19087;SDS011;9676;50.916;13.352;2022-10-31T11:18:28;9.90;;;8.90;;
19087;SDS011;9676;50.916;13.352;2022-10-31T11:21:00;10.60;;;9.50;;
19087;SDS011;9676;50.916;13.352;2022-10-31T11:23:32;14.43;;;9.40;;
19087;SDS011;9676;50.916;13.352;2022-10-31T11:26:02;10.07;;;9.13;;
19087;SDS011;9676;50.916;13.352;2022-10-31T11:28:35;10.33;;;9.33;;
19087;SDS011;9676;50.916;13.352;2022-10-31T11:31:05;12.43;;;9.30;;
19087;SDS011;9676;50.916;13.352;2022-10-31T11:33:37;11.17;;;9.60;;
19087;SDS011;9676;50.916;13.352;2022-10-31T11:36:15;10.97;;;9.07;;
19087;SDS011;9676;50.916;13.352;2022-10-31T11:38:50;11.60;;;9.57;;
19087;SDS011;9676;50.916;13.352;2022-10-31T11:41:24;10.70;;;9.60;;
19087;SDS011;9676;50.916;13.352;2022-10-31T11:43:57;10.53;;;9.43;;
19087;SDS011;9676;50.916;13.352;2022-10-31T11:46:30;10.43;;;9.33;;
19087;SDS011;9676;50.916;13.352;2022-10-31T11:49:11;10.50;;;9.40;;
19087;SDS011;9676;50.916;13.352;2022-10-31T11:51:47;10.53;;;9.50;;
19087;SDS011;9676;50.916;13.352;2022-10-31T11:54:20;13.23;;;9.70;;
19087;SDS011;9676;50.916;13.352;2022-10-31T11:56:53;12.00;;;9.57;;
19087;SDS011;9676;50.916;13.352;2022-10-31T11:59:25;12.93;;;9.83;;
19087;SDS011;9676;50.916;13.352;2022-10-31T12:01:57;10.07;;;9.17;;
19087;SDS011;9676;50.916;13.352;2022-10-31T12:04:34;11.97;;;10.13;;
19087;SDS011;9676;50.916;13.352;2022-10-31T12:07:12;13.40;;;9.93;;
19087;SDS011;9676;50.916;13.352;2022-10-31T12:09:42;11.73;;;9.77;;
19087;SDS011;9676;50.916;13.352;2022-10-31T12:12:16;10.60;;;9.60;;
19087;SDS011;9676;50.916;13.352;2022-10-31T12:15:23;10.63;;;9.53;;
19087;SDS011;9676;50.916;13.352;2022-10-31T12:21:15;11.40;;;9.90;;
19087;SDS011;9676;50.916;13.352;2022-10-31T12:24:15;10.70;;;9.60;;
19087;SDS011;9676;50.916;13.352;2022-10-31T12:27:02;11.37;;;9.70;;
19087;SDS011;9676;50.916;13.352;2022-10-31T12:29:49;14.50;;;9.70;;
19087;SDS011;9676;50.916;13.352;2022-10-31T12:32:35;13.20;;;9.40;;
19087;SDS011;9676;50.916;13.352;2022-10-31T12:35:20;10.73;;;9.63;;
19087;SDS011;9676;50.916;13.352;2022-10-31T12:38:06;10.60;;;9.50;;
19087;SDS011;9676;50.916;13.352;2022-10-31T12:41:00;12.27;;;9.80;;
19087;SDS011;9676;50.916;13.352;2022-10-31T12:43:46;11.00;;;9.70;;
19087;SDS011;9676;50.916;13.352;2022-10-31T12:46:25;10.83;;;9.73;;
19087;SDS011;9676;50.916;13.352;2022-10-31T12:49:17;11.03;;;9.70;;
19087;SDS011;9676;50.916;13.352;2022-10-31T12:52:10;10.90;;;9.80;;
19087;SDS011;9676;50.916;13.352;2022-10-31T12:55:14;10.90;;;9.80;;
19087;SDS011;9676;50.916;13.352;2022-10-31T12:58:03;10.70;;;9.70;;
19087;SDS011;9676;50.916;13.352;2022-10-31T13:00:38;10.60;;;9.50;;
19087;SDS011;9676;50.916;13.352;2022-10-31T13:03:17;12.70;;;10.10;;
19087;SDS011;9676;50.916;13.352;2022-10-31T13:05:58;10.47;;;9.47;;
19087;SDS011;9676;50.916;13.352;2022-10-31T13:08:34;10.90;;;9.80;;
19087;SDS011;9676;50.916;13.352;2022-10-31T13:11:09;10.43;;;9.43;;
19087;SDS011;9676;50.916;13.352;2022-10-31T13:13:43;12.23;;;9.87;;
19087;SDS011;9676;50.916;13.352;2022-10-31T13:16:18;10.93;;;9.83;;
19087;SDS011;9676;50.916;13.352;2022-10-31T13:18:52;10.83;;;9.70;;
19087;SDS011;9676;50.916;13.352;2022-10-31T13:21:29;11.20;;;10.10;;
19087;SDS011;9676;50.916;13.352;2022-10-31T13:24:04;11.33;;;10.13;;
19087;SDS011;9676;50.916;13.352;2022-10-31T13:26:42;11.60;;;9.80;;
19087;SDS011;9676;50.916;13.352;2022-10-31T13:29:17;12.33;;;10.10;;
19087;SDS011;9676;50.916;13.352;2022-10-31T13:31:57;11.20;;;9.90;;
19087;SDS011;9676;50.916;13.352;2022-10-31T13:34:28;11.03;;;9.83;;
19087;SDS011;9676;50.916;13.352;2022-10-31T13:37:05;12.53;;;9.90;;
19087;SDS011;9676;50.916;13.352;2022-10-31T13:39:53;11.30;;;10.00;;
19087;SDS011;9676;50.916;13.352;2022-10-31T13:42:41;10.87;;;9.80;;
19087;SDS011;9676;50.916;13.352;2022-10-31T13:45:24;12.23;;;10.60;;
19087;SDS011;9676;50.916;13.352;2022-10-31T13:47:55;12.60;;;10.10;;
19087;SDS011;9676;50.916;13.352;2022-10-31T13:50:28;11.60;;;10.40;;
19087;SDS011;9676;50.916;13.352;2022-10-31T13:53:19;11.47;;;10.10;;
19087;SDS011;9676;50.916;13.352;2022-10-31T13:56:01;11.30;;;10.07;;
19087;SDS011;9676;50.916;13.352;2022-10-31T13:58:40;11.17;;;10.07;;
19087;SDS011;9676;50.916;13.352;2022-10-31T14:01:25;11.00;;;9.77;;
19087;SDS011;9676;50.916;13.352;2022-10-31T14:03:58;11.47;;;10.27;;
19087;SDS011;9676;50.916;13.352;2022-10-31T14:06:44;11.50;;;10.30;;
19087;SDS011;9676;50.916;13.352;2022-10-31T14:09:24;11.60;;;10.40;;
19087;SDS011;9676;50.916;13.352;2022-10-31T14:12:01;12.80;;;10.53;;
19087;SDS011;9676;50.916;13.352;2022-10-31T14:14:36;11.00;;;9.90;;
19087;SDS011;9676;50.916;13.352;2022-10-31T14:17:17;12.73;;;10.53;;
19087;SDS011;9676;50.916;13.352;2022-10-31T14:20:00;11.23;;;10.10;;
19087;SDS011;9676;50.916;13.352;2022-10-31T14:23:11;11.43;;;10.33;;
19087;SDS011;9676;50.916;13.352;2022-10-31T14:29:22;10.97;;;9.87;;
19087;SDS011;9676;50.916;13.352;2022-10-31T14:31:55;11.43;;;10.23;;
19087;SDS011;9676;50.916;13.352;2022-10-31T14:34:35;12.03;;;10.00;;
19087;SDS011;9676;50.916;13.352;2022-10-31T14:37:28;12.43;;;10.50;;
19087;SDS011;9676;50.916;13.352;2022-10-31T14:40:20;11.40;;;10.20;;
19087;SDS011;9676;50.916;13.352;2022-10-31T14:43:01;11.20;;;10.07;;
19087;SDS011;9676;50.916;13.352;2022-10-31T14:45:49;11.23;;;10.13;;
19087;SDS011;9676;50.916;13.352;2022-10-31T14:48:35;11.30;;;10.13;;
19087;SDS011;9676;50.916;13.352;2022-10-31T14:51:27;13.30;;;10.10;;
19087;SDS011;9676;50.916;13.352;2022-10-31T14:54:04;13.13;;;9.70;;
19087;SDS011;9676;50.916;13.352;2022-10-31T14:56:35;10.90;;;9.63;;
19087;SDS011;9676;50.916;13.352;2022-10-31T14:59:16;11.00;;;9.90;;
19087;SDS011;9676;50.916;13.352;2022-10-31T15:01:54;11.10;;;10.00;;
19087;SDS011;9676;50.916;13.352;2022-10-31T15:04:27;11.20;;;10.10;;
19087;SDS011;9676;50.916;13.352;2022-10-31T15:07:00;11.30;;;10.10;;
19087;SDS011;9676;50.916;13.352;2022-10-31T15:09:35;11.27;;;10.10;;
19087;SDS011;9676;50.916;13.352;2022-10-31T15:12:21;12.33;;;10.50;;
19087;SDS011;9676;50.916;13.352;2022-10-31T15:14:54;12.60;;;10.20;;
19087;SDS011;9676;50.916;13.352;2022-10-31T15:17:25;12.20;;;10.60;;
19087;SDS011;9676;50.916;13.352;2022-10-31T15:19:55;16.70;;;10.97;;
19087;SDS011;9676;50.916;13.352;2022-10-31T15:22:24;12.27;;;10.97;;
19087;SDS011;9676;50.916;13.352;2022-10-31T15:24:56;11.33;;;10.23;;
19087;SDS011;9676;50.916;13.352;2022-10-31T15:27:26;11.93;;;10.63;;
19087;SDS011;9676;50.916;13.352;2022-10-31T15:29:58;12.17;;;10.63;;
19087;SDS011;9676;50.916;13.352;2022-10-31T15:32:27;11.60;;;10.40;;
19087;SDS011;9676;50.916;13.352;2022-10-31T15:34:57;12.13;;;10.87;;
19087;SDS011;9676;50.916;13.352;2022-10-31T15:37:26;11.77;;;10.67;;
19087;SDS011;9676;50.916;13.352;2022-10-31T15:39:56;11.80;;;10.70;;
19087;SDS011;9676;50.916;13.352;2022-10-31T15:42:40;12.40;;;11.20;;
19087;SDS011;9676;50.916;13.352;2022-10-31T15:45:18;13.70;;;11.87;;
19087;SDS011;9676;50.916;13.352;2022-10-31T15:47:53;12.30;;;11.00;;
19087;SDS011;9676;50.916;13.352;2022-10-31T15:50:27;11.70;;;10.50;;